Time;durP1;ratioP1;P1;durP2;ratioP2;P2;SDS_P1;SDS_P2;PMS_P1;PMS_P2;Temp;Humidity;BMP_temperature;BMP_pressure;BME280_temperature;BME280_humidity;BME280_pressure;Samples;Min_cycle;Max_cycle;Signal;HPM_P1;HPM_P2
2023/05/04 00:01:03;;;;;;;6.65;5.00;;;16.80;95.30;;;;;;5095269;28;20367;-75
2023/05/04 00:04:08;;;;;;;7.03;4.22;;;16.90;95.60;;;;;;5095149;28;20039;-75
2023/05/04 00:07:12;;;;;;;8.18;4.70;;;16.80;95.60;;;;;;5094642;28;20043;-73
2023/05/04 00:10:16;;;;;;;6.30;4.72;;;16.90;95.60;;;;;;5095047;28;20403;-74
2023/05/04 00:13:20;;;;;;;5.82;4.47;;;16.80;95.40;;;;;;5094800;28;20114;-74
2023/05/04 00:16:24;;;;;;;8.98;4.97;;;16.90;95.60;;;;;;5094403;28;20526;-74
2023/05/04 00:19:28;;;;;;;5.65;4.90;;;16.80;95.40;;;;;;5094426;28;20059;-74
2023/05/04 00:22:32;;;;;;;7.78;4.55;;;16.80;95.40;;;;;;5094633;28;20043;-73
2023/05/04 00:25:37;;;;;;;4.97;4.25;;;16.80;95.70;;;;;;5094383;28;20383;-74
2023/05/04 00:28:41;;;;;;;4.78;4.20;;;16.80;95.70;;;;;;5094312;28;20051;-74
2023/05/04 00:31:45;;;;;;;7.63;4.82;;;16.80;95.50;;;;;;5094229;28;20047;-73
2023/05/04 00:34:49;;;;;;;7.05;4.55;;;16.70;95.70;;;;;;5094460;28;20059;-74
2023/05/04 00:37:53;;;;;;;6.28;4.50;;;16.80;95.60;;;;;;5093607;28;20055;-74
2023/05/04 00:40:57;;;;;;;9.68;5.00;;;16.80;95.40;;;;;;5094183;28;20407;-74
2023/05/04 00:44:03;;;;;;;6.60;4.43;;;16.80;95.00;;;;;;5094271;28;20043;-74
2023/05/04 00:47:08;;;;;;;6.00;4.35;;;16.80;95.20;;;;;;5093148;28;20043;-74
2023/05/04 00:50:12;;;;;;;5.63;4.05;;;16.80;95.40;;;;;;5093015;28;20054;-74
2023/05/04 00:53:16;;;;;;;8.00;4.35;;;18.00;95.40;;;;;;5094223;28;20039;-75
2023/05/04 00:56:23;;;;;;;8.20;4.40;;;16.70;95.00;;;;;;5093942;28;20419;-75
2023/05/04 00:59:27;;;;;;;8.27;4.55;;;16.90;95.30;;;;;;5092844;28;20190;-75
2023/05/04 01:02:31;;;;;;;6.50;4.15;;;16.70;95.00;;;;;;5093757;28;20598;-74
2023/05/04 01:06:08;;;;;;;7.97;4.65;;;13.00;94.10;;;;;;5093551;28;20071;-74
2023/05/04 01:09:32;;;;;;;10.23;4.65;;;17.40;95.20;;;;;;5091971;28;20055;-74
2023/05/04 01:12:57;;;;;;;8.60;5.00;;;16.60;95.20;;;;;;5093538;28;20051;-74
2023/05/04 01:16:02;;;;;;;5.57;4.35;;;16.50;95.10;;;;;;5093657;28;20051;-74
2023/05/04 01:19:06;;;;;;;5.30;4.40;;;16.70;94.80;;;;;;5092766;28;20071;-74
2023/05/04 01:22:09;;;;;;;5.55;4.30;;;16.70;95.00;;;;;;5093468;28;20055;-75
2023/05/04 01:25:13;;;;;;;6.88;3.80;;;16.70;94.80;;;;;;5093161;28;20043;-74
2023/05/04 01:28:21;;;;;;;5.70;3.83;;;16.60;95.00;;;;;;5092405;28;20059;-74
2023/05/04 01:31:26;;;;;;;6.55;4.20;;;16.70;95.20;;;;;;5093366;28;20047;-74
2023/05/04 01:34:30;;;;;;;5.68;4.28;;;16.70;95.10;;;;;;5092462;28;20051;-74
2023/05/04 01:37:34;;;;;;;6.63;4.03;;;16.50;95.40;;;;;;5093159;28;20047;-74
2023/05/04 01:40:38;;;;;;;8.13;4.00;;;16.60;95.50;;;;;;5093085;28;20490;-74
2023/05/04 01:43:42;;;;;;;5.90;4.55;;;16.70;95.70;;;;;;5093355;28;20055;-74
2023/05/04 01:46:46;;;;;;;8.55;4.35;;;16.60;95.40;;;;;;5092217;28;20047;-74
2023/05/04 01:49:50;;;;;;;5.30;4.47;;;16.60;95.60;;;;;;5093025;28;20043;-74
2023/05/04 01:52:54;;;;;;;6.78;4.47;;;16.60;95.60;;;;;;5092920;28;20046;-75
2023/05/04 01:55:57;;;;;;;5.30;4.50;;;16.50;95.70;;;;;;5092559;28;20494;-73
2023/05/04 01:59:02;;;;;;;7.03;4.93;;;16.50;95.80;;;;;;5091951;28;20059;-73
2023/05/04 02:02:06;;;;;;;7.30;4.32;;;16.50;96.10;;;;;;5091853;28;20039;-73
2023/05/04 02:05:10;;;;;;;8.50;4.10;;;16.60;96.00;;;;;;5091599;28;20043;-73
2023/05/04 02:08:14;;;;;;;6.18;4.68;;;16.60;96.30;;;;;;5091807;28;20047;-74
2023/05/04 02:11:18;;;;;;;6.55;5.07;;;16.60;96.40;;;;;;5092776;28;20051;-73
2023/05/04 02:14:22;;;;;;;8.30;4.57;;;16.50;96.60;;;;;;5092314;28;20039;-73
2023/05/04 02:17:26;;;;;;;9.02;4.70;;;16.40;96.80;;;;;;5091749;28;20046;-74
2023/05/04 02:20:30;;;;;;;7.57;4.57;;;16.30;96.70;;;;;;5092083;28;20052;-73
2023/05/04 02:23:34;;;;;;;6.75;4.50;;;16.20;97.20;;;;;;5092515;28;20051;-74
2023/05/04 02:26:38;;;;;;;5.55;4.88;;;16.00;97.00;;;;;;5092125;28;20079;-74
2023/05/04 02:29:42;;;;;;;9.10;5.18;;;16.10;97.10;;;;;;5091405;28;20063;-74
2023/05/04 02:32:46;;;;;;;8.57;4.60;;;16.20;97.10;;;;;;5091959;28;20039;-74
2023/05/04 02:35:52;;;;;;;6.40;5.07;;;16.10;97.30;;;;;;5091430;28;20430;-74
2023/05/04 02:38:59;;;;;;;7.20;4.75;;;16.20;97.50;;;;;;5091718;28;20047;-74
2023/05/04 02:42:02;;;;;;;9.90;4.63;;;16.20;97.30;;;;;;5092458;28;20059;-74
2023/05/04 02:45:07;;;;;;;8.55;5.32;;;16.20;97.50;;;;;;5091227;28;20506;-74
2023/05/04 02:48:11;;;;;;;6.20;5.03;;;16.20;97.20;;;;;;5092473;28;20039;-74
2023/05/04 02:51:15;;;;;;;12.43;5.22;;;16.20;97.10;;;;;;5091846;28;20051;-74
2023/05/04 02:54:18;;;;;;;7.35;4.90;;;16.10;97.30;;;;;;5091644;28;20051;-74
2023/05/04 02:57:22;;;;;;;9.00;5.72;;;16.00;97.20;;;;;;5079154;28;20403;-73
2023/05/04 03:00:26;;;;;;;8.23;5.30;;;14.90;97.10;;;;;;5090583;28;20059;-74
2023/05/04 03:03:31;;;;;;;7.97;6.28;;;15.90;97.50;;;;;;5091796;28;20040;-73
2023/05/04 03:06:35;;;;;;;8.45;5.53;;;16.00;97.60;;;;;;5090814;28;20501;-73
2023/05/04 03:09:38;;;;;;;8.10;5.63;;;16.00;97.80;;;;;;5091626;28;20495;-73
2023/05/04 03:12:43;;;;;;;8.93;5.43;;;16.00;97.70;;;;;;5091388;28;20051;-72
2023/05/04 03:15:48;;;;;;;10.10;6.43;;;15.90;97.30;;;;;;5091189;28;20043;-74
2023/05/04 03:18:52;;;;;;;10.25;5.45;;;15.90;97.50;;;;;;5090443;28;20063;-74
2023/05/04 03:21:56;;;;;;;7.78;5.90;;;15.90;97.40;;;;;;5090527;28;20039;-74
2023/05/04 03:25:00;;;;;;;11.68;5.57;;;15.90;97.40;;;;;;5090875;28;20038;-74
2023/05/04 03:28:04;;;;;;;6.55;5.35;;;15.90;97.10;;;;;;5090097;28;20063;-74
2023/05/04 03:31:08;;;;;;;10.32;5.60;;;15.90;97.00;;;;;;5090065;28;20491;-74
2023/05/04 03:34:14;;;;;;;6.88;4.88;;;16.00;96.90;;;;;;5090366;28;20047;-73
2023/05/04 03:37:18;;;;;;;7.43;5.07;;;16.00;96.40;;;;;;5090552;28;20043;-73
2023/05/04 03:40:23;;;;;;;6.18;4.57;;;16.00;96.30;;;;;;5089988;28;20063;-73
2023/05/04 03:43:29;;;;;;;6.25;4.75;;;16.10;95.90;;;;;;5090244;28;20054;-76
2023/05/04 03:46:35;;;;;;;5.63;4.03;;;16.20;95.70;;;;;;5089977;28;20043;-74
2023/05/04 03:49:39;;;;;;;7.95;4.25;;;13.30;95.10;;;;;;5090526;28;20183;-74
2023/05/04 03:52:43;;;;;;;10.07;4.60;;;16.90;96.20;;;;;;5091093;28;20062;-76
2023/05/04 03:55:48;;;;;;;7.60;4.40;;;15.90;95.90;;;;;;5089929;28;20387;-75
2023/05/04 03:58:52;;;;;;;4.97;3.92;;;15.10;95.40;;;;;;5090921;28;20055;-74
2023/05/04 04:02:01;;;;;;;5.32;4.13;;;15.90;95.40;;;;;;5090062;28;20395;-74
2023/05/04 04:05:07;;;;;;;10.63;4.28;;;16.10;95.40;;;;;;5091074;28;20067;-73
2023/05/04 04:08:13;;;;;;;8.32;4.68;;;16.30;95.50;;;;;;5090146;28;20379;-74
2023/05/04 04:11:17;;;;;;;5.72;4.05;;;16.30;95.30;;;;;;5089925;28;20051;-74
2023/05/04 04:14:21;;;;;;;8.05;4.60;;;16.30;95.60;;;;;;5091139;28;20063;-74
2023/05/04 04:17:25;;;;;;;8.73;5.18;;;16.30;95.50;;;;;;5090691;28;20043;-74
2023/05/04 04:20:28;;;;;;;8.07;4.47;;;16.30;95.60;;;;;;5089843;28;20051;-74
2023/05/04 04:23:32;;;;;;;10.93;5.38;;;16.30;95.70;;;;;;5091143;28;20388;-74
2023/05/04 04:26:36;;;;;;;13.05;5.57;;;16.30;95.70;;;;;;5090417;28;20055;-74
2023/05/04 04:29:40;;;;;;;11.43;4.88;;;16.00;95.80;;;;;;5090609;28;20039;-74
2023/05/04 04:32:44;;;;;;;7.15;5.07;;;15.90;96.10;;;;;;5091031;28;20503;-74
2023/05/04 04:35:48;;;;;;;7.55;5.28;;;15.80;96.30;;;;;;5090698;28;20039;-75
2023/05/04 04:38:52;;;;;;;11.32;5.28;;;15.80;96.50;;;;;;5090535;28;20059;-74
2023/05/04 04:41:56;;;;;;;7.13;5.68;;;15.90;96.50;;;;;;5090889;28;20499;-74
2023/05/04 04:45:04;;;;;;;9.35;5.32;;;15.90;96.40;;;;;;5094329;28;20055;-75
2023/05/04 04:48:08;;;;;;;8.48;4.68;;;16.20;97.30;;;;;;5094523;28;20050;-73
2023/05/04 04:51:12;;;;;;;7.38;4.20;;;16.40;97.50;;;;;;5094279;28;20070;-74
2023/05/04 04:54:16;;;;;;;8.70;4.35;;;17.50;95.40;;;;;;5094104;28;20035;-74
2023/05/04 04:57:20;;;;;;;14.63;5.00;;;18.80;93.40;;;;;;5093238;28;20403;-74
2023/05/04 05:00:25;;;;;;;15.00;5.30;;;20.40;91.30;;;;;;5094026;28;20406;-74
2023/05/04 05:03:28;;;;;;;6.45;4.32;;;21.80;89.20;;;;;;5093919;28;20047;-73
2023/05/04 05:06:32;;;;;;;11.32;4.38;;;22.80;84.80;;;;;;5094851;28;20055;-74
2023/05/04 05:09:37;;;;;;;22.45;5.55;;;23.50;84.10;;;;;;5094295;28;20039;-74
2023/05/04 05:12:41;;;;;;;14.68;4.68;;;24.50;80.30;;;;;;5093839;28;20035;-74
2023/05/04 05:15:45;;;;;;;10.57;4.15;;;24.60;79.50;;;;;;5093623;28;20051;-73
2023/05/04 05:18:49;;;;;;;5.72;4.10;;;24.80;78.20;;;;;;5095601;28;20047;-74
2023/05/04 05:21:53;;;;;;;11.73;4.68;;;24.40;78.70;;;;;;5093756;28;20518;-74
2023/05/04 05:24:57;;;;;;;6.75;4.60;;;23.50;80.60;;;;;;5093752;28;20043;-74
2023/05/04 05:28:01;;;;;;;7.00;4.55;;;22.50;82.40;;;;;;5093402;28;20067;-74
2023/05/04 05:31:05;;;;;;;5.82;4.53;;;21.80;84.60;;;;;;5093653;28;20512;-75
2023/05/04 05:34:09;;;;;;;15.80;5.60;;;21.40;86.30;;;;;;5092613;28;20059;-73
2023/05/04 05:37:13;;;;;;;7.10;4.95;;;21.20;86.40;;;;;;5093077;28;20050;-72
2023/05/04 05:40:18;;;;;;;11.43;5.22;;;20.90;87.10;;;;;;5093064;28;20055;-73
2023/05/04 05:43:22;;;;;;;8.00;5.30;;;20.80;88.30;;;;;;5093469;28;20043;-71
2023/05/04 05:46:27;;;;;;;5.75;4.60;;;20.70;88.40;;;;;;5093011;28;20399;-71
2023/05/04 05:49:31;;;;;;;9.43;4.80;;;20.80;88.10;;;;;;5093322;28;20038;-71
2023/05/04 05:52:35;;;;;;;7.60;4.43;;;21.10;88.60;;;;;;5092854;28;20052;-70
2023/05/04 05:55:39;;;;;;;6.10;4.72;;;21.00;88.10;;;;;;5092035;28;20148;-70
2023/05/04 05:58:43;;;;;;;12.07;4.97;;;21.30;87.40;;;;;;5092709;28;20058;-71
2023/05/04 06:01:47;;;;;;;6.15;4.72;;;21.10;86.60;;;;;;5092957;28;20050;-72
2023/05/04 06:04:51;;;;;;;7.95;4.10;;;21.10;86.50;;;;;;5091675;28;20047;-71
2023/05/04 06:07:55;;;;;;;7.03;4.40;;;21.30;86.60;;;;;;5092766;28;20047;-72
2023/05/04 06:10:59;;;;;;;5.97;4.47;;;21.70;86.70;;;;;;5092758;28;20043;-72
2023/05/04 06:14:02;;;;;;;9.02;4.22;;;22.00;84.60;;;;;;5092623;28;20051;-71
2023/05/04 06:17:06;;;;;;;8.45;3.60;;;21.50;84.60;;;;;;5092358;28;20043;-73
2023/05/04 06:20:11;;;;;;;6.47;4.20;;;21.40;85.50;;;;;;5092077;28;20055;-73
2023/05/04 06:23:16;;;;;;;6.35;3.83;;;21.30;86.60;;;;;;5090781;28;20043;-71
2023/05/04 06:26:20;;;;;;;6.47;4.00;;;21.20;84.80;;;;;;5090239;28;20046;-72
2023/05/04 06:29:25;;;;;;;5.43;3.75;;;20.80;85.10;;;;;;5091456;28;20087;-72
2023/05/04 06:32:29;;;;;;;6.50;3.72;;;20.60;86.10;;;;;;5091520;28;20046;-71
2023/05/04 06:35:33;;;;;;;4.75;3.60;;;20.60;85.00;;;;;;5091538;28;20058;-72
2023/05/04 06:38:37;;;;;;;4.65;3.20;;;20.90;84.20;;;;;;5091397;28;20050;-72
2023/05/04 06:41:41;;;;;;;6.50;3.47;;;21.20;83.20;;;;;;5090986;28;20047;-72
2023/05/04 06:44:45;;;;;;;5.35;3.33;;;21.60;83.20;;;;;;5091800;28;20050;-72
2023/05/04 06:47:51;;;;;;;6.85;3.40;;;22.10;82.20;;;;;;5091191;28;20051;-72
2023/05/04 06:50:56;;;;;;;5.43;3.50;;;22.20;81.40;;;;;;5090913;28;20497;-72
2023/05/04 06:54:00;;;;;;;4.82;3.92;;;22.50;80.10;;;;;;5091531;28;20039;-72
2023/05/04 06:57:04;;;;;;;4.88;3.13;;;22.40;79.00;;;;;;5091384;28;20047;-72
2023/05/04 07:00:09;;;;;;;9.10;3.17;;;22.30;79.00;;;;;;5090533;28;20498;-72
2023/05/04 07:03:13;;;;;;;6.88;3.63;;;22.50;79.20;;;;;;5091669;28;20047;-72
2023/05/04 07:06:17;;;;;;;5.63;3.15;;;22.30;79.40;;;;;;5090732;28;20157;-72
2023/05/04 07:09:21;;;;;;;13.13;3.80;;;22.50;79.40;;;;;;5091592;28;20067;-76
2023/05/04 07:12:25;;;;;;;5.85;3.13;;;22.80;79.90;;;;;;5091357;28;20059;-71
2023/05/04 07:15:29;;;;;;;6.90;3.03;;;22.90;77.40;;;;;;5091492;28;20054;-71
2023/05/04 07:18:33;;;;;;;4.15;2.83;;;23.20;78.70;;;;;;5091206;28;20043;-73
2023/05/04 07:21:37;;;;;;;7.65;3.17;;;23.10;77.10;;;;;;5091695;28;20051;-72
2023/05/04 07:24:41;;;;;;;9.60;4.22;;;23.20;77.50;;;;;;5091060;28;20054;-73
2023/05/04 07:27:45;;;;;;;7.65;3.28;;;23.20;77.30;;;;;;5090925;28;20051;-73
2023/05/04 07:30:49;;;;;;;8.38;3.13;;;23.60;76.20;;;;;;5091194;28;20039;-72
2023/05/04 07:33:52;;;;;;;4.45;3.10;;;23.60;75.90;;;;;;5090956;28;20456;-72
2023/05/04 07:36:56;;;;;;;5.13;2.92;;;23.30;75.80;;;;;;5091386;28;20529;-73
2023/05/04 07:40:00;;;;;;;5.35;2.83;;;23.40;75.40;;;;;;5089795;28;20055;-70
2023/05/04 07:43:04;;;;;;;5.55;3.00;;;23.40;75.20;;;;;;5090810;28;20047;-72
2023/05/04 07:46:08;;;;;;;7.00;3.10;;;23.30;76.80;;;;;;5090945;28;20054;-72
2023/05/04 07:49:12;;;;;;;4.78;2.95;;;23.50;76.40;;;;;;5091041;28;20043;-72
2023/05/04 07:52:16;;;;;;;5.82;2.95;;;23.70;75.60;;;;;;5091116;28;20403;-73
2023/05/04 07:55:20;;;;;;;3.47;2.75;;;23.60;75.70;;;;;;5091055;28;20051;-72
2023/05/04 07:58:24;;;;;;;5.25;3.00;;;23.30;75.80;;;;;;5091009;28;20055;-72
2023/05/04 08:01:28;;;;;;;3.88;2.70;;;23.30;76.70;;;;;;5090071;28;20059;-73
2023/05/04 08:04:32;;;;;;;4.30;3.33;;;23.40;76.20;;;;;;5090822;28;20461;-72
2023/05/04 08:07:55;;;;;;;11.05;3.70;;;23.60;75.50;;;;;;5090515;28;20047;-72
2023/05/04 08:10:59;;;;;;;9.15;3.00;;;23.50;75.60;;;;;;5090733;28;20043;-71
2023/05/04 08:14:03;;;;;;;7.10;3.30;;;23.70;76.70;;;;;;5090816;28;20054;-73
2023/05/04 08:17:07;;;;;;;4.78;3.00;;;23.90;75.10;;;;;;5090495;28;20039;-72
2023/05/04 08:20:11;;;;;;;11.77;3.40;;;23.70;74.70;;;;;;5094444;28;20055;-72
2023/05/04 08:23:15;;;;;;;6.80;3.30;;;23.60;75.50;;;;;;5094223;28;20047;-70
2023/05/04 08:26:19;;;;;;;6.50;3.40;;;23.70;74.80;;;;;;5093001;28;20399;-72
2023/05/04 08:29:24;;;;;;;6.70;3.25;;;23.90;74.20;;;;;;5093475;28;20533;-71
2023/05/04 08:32:28;;;;;;;6.85;3.50;;;24.00;75.00;;;;;;5093889;28;20047;-72
2023/05/04 08:35:32;;;;;;;10.30;3.85;;;23.60;74.60;;;;;;5093304;28;20495;-71
2023/05/04 08:38:36;;;;;;;5.82;3.60;;;23.70;76.00;;;;;;5094303;28;20050;-75
2023/05/04 08:41:40;;;;;;;9.15;3.20;;;23.60;75.10;;;;;;5093951;28;20047;-73
2023/05/04 08:44:44;;;;;;;5.65;3.55;;;23.50;74.90;;;;;;5094192;28;20529;-74
2023/05/04 08:47:48;;;;;;;6.70;3.38;;;23.70;74.50;;;;;;5093339;28;20047;-73
2023/05/04 08:50:53;;;;;;;3.90;3.50;;;23.60;74.30;;;;;;5094395;28;20050;-72
2023/05/04 08:53:58;;;;;;;6.30;3.40;;;23.60;75.60;;;;;;5094163;28;20043;-77
2023/05/04 08:57:03;;;;;;;6.90;3.25;;;23.70;75.80;;;;;;5094307;28;20400;-75
2023/05/04 09:00:09;;;;;;;6.78;3.83;;;23.90;75.60;;;;;;5081335;28;20039;-75
2023/05/04 09:03:15;;;;;;;5.55;3.75;;;23.90;74.70;;;;;;5093891;28;20566;-74
2023/05/04 09:06:19;;;;;;;4.70;3.25;;;23.90;73.50;;;;;;5093640;28;20062;-76
2023/05/04 09:09:27;;;;;;;6.50;3.30;;;24.20;74.00;;;;;;5093876;28;20059;-74
2023/05/04 09:12:32;;;;;;;6.32;3.45;;;24.30;73.70;;;;;;5093470;28;20645;-76
2023/05/04 09:15:36;;;;;;;3.97;3.28;;;24.00;73.70;;;;;;5093543;28;20399;-73
2023/05/04 09:18:42;;;;;;;4.38;3.55;;;23.90;73.70;;;;;;5092621;28;20497;-75
2023/05/04 09:21:48;;;;;;;4.00;3.60;;;23.70;74.70;;;;;;5093803;28;20051;-72
2023/05/04 09:24:53;;;;;;;3.80;3.35;;;23.60;75.80;;;;;;5093488;28;20047;-73
2023/05/04 09:27:57;;;;;;;5.00;3.83;;;23.50;75.30;;;;;;5093216;28;20108;-76
2023/05/04 09:31:02;;;;;;;5.68;3.70;;;23.50;74.70;;;;;;5092281;28;20043;-76
2023/05/04 09:34:09;;;;;;;7.85;3.80;;;23.60;75.10;;;;;;5093289;28;20213;-71
2023/05/04 09:37:13;;;;;;;7.82;4.10;;;23.80;74.50;;;;;;5093371;28;20055;-72
2023/05/04 09:40:17;;;;;;;6.32;4.15;;;23.80;75.20;;;;;;5092886;28;20066;-73
2023/05/04 09:43:21;;;;;;;5.43;4.30;;;24.00;73.30;;;;;;5093214;28;20043;-73
2023/05/04 09:46:25;;;;;;;7.05;3.90;;;24.00;73.80;;;;;;5093005;28;20051;-74
2023/05/04 09:49:33;;;;;;;6.63;4.03;;;23.70;74.70;;;;;;5093209;28;20039;-74
2023/05/04 09:52:39;;;;;;;4.65;3.83;;;23.40;74.90;;;;;;5091902;28;20051;-73
2023/05/04 09:55:46;;;;;;;6.57;4.47;;;23.10;76.20;;;;;;5093072;28;20039;-72
2023/05/04 09:58:50;;;;;;;4.25;3.78;;;23.00;76.60;;;;;;5092889;28;20368;-73
2023/05/04 10:01:57;;;;;;;4.30;3.40;;;23.40;76.60;;;;;;5092835;28;20067;-73
2023/05/04 10:05:03;;;;;;;7.50;3.88;;;23.40;75.80;;;;;;5091904;28;20047;-71
2023/05/04 10:08:07;;;;;;;7.57;3.78;;;23.50;75.70;;;;;;5092916;28;20043;-71
2023/05/04 10:11:13;;;;;;;8.68;4.88;;;23.50;75.90;;;;;;5092597;28;20500;-70
2023/05/04 10:14:17;;;;;;;6.68;3.50;;;23.40;76.80;;;;;;5091744;28;20399;-73
2023/05/04 10:18:06;;;;;;;10.82;4.78;;;23.40;76.00;;;;;;5092721;28;20400;-72
2023/05/04 10:21:14;;;;;;;4.40;3.58;;;23.10;77.40;;;;;;5092204;28;20047;-71
2023/05/04 10:24:56;;;;;;;4.45;3.75;;;22.90;76.60;;;;;;5092027;28;20491;-73
2023/05/04 10:28:16;;;;;;;4.53;4.10;;;22.90;77.80;;;;;;5091243;28;20063;-71
2023/05/04 10:31:21;;;;;;;8.25;4.25;;;22.80;78.60;;;;;;5092354;28;20114;-72
2023/05/04 10:34:30;;;;;;;5.43;4.47;;;22.60;78.40;;;;;;5091965;28;20043;-72
2023/05/04 10:37:36;;;;;;;5.60;3.70;;;22.40;77.80;;;;;;5091954;28;20043;-72
2023/05/04 10:40:40;;;;;;;9.63;4.13;;;22.30;79.00;;;;;;5090994;28;20062;-73
2023/05/04 10:43:51;;;;;;;13.02;3.88;;;22.30;79.60;;;;;;5091562;28;20039;-73
2023/05/04 10:47:06;;;;;;;5.63;3.78;;;22.40;79.60;;;;;;5091791;28;20051;-72
2023/05/04 10:50:13;;;;;;;7.28;3.88;;;22.60;79.80;;;;;;5090831;28;20039;-72
2023/05/04 10:53:17;;;;;;;7.65;3.92;;;22.90;79.00;;;;;;5091848;28;20039;-71
2023/05/04 10:56:26;;;;;;;6.97;4.80;;;23.00;76.70;;;;;;5091333;28;20039;-73
2023/05/04 10:59:31;;;;;;;9.02;4.05;;;22.80;78.20;;;;;;5091259;28;20042;-75
2023/05/04 11:02:36;;;;;;;4.85;4.35;;;22.70;78.40;;;;;;5091629;28;20400;-74
2023/05/04 11:05:44;;;;;;;7.00;4.53;;;22.60;77.90;;;;;;5091488;28;20043;-75
2023/05/04 11:08:58;;;;;;;7.57;4.88;;;22.60;78.20;;;;;;5091526;28;20047;-74
2023/05/04 11:12:02;;;;;;;7.53;5.47;;;22.50;78.10;;;;;;5091228;28;20043;-74
2023/05/04 11:15:08;;;;;;;8.88;5.07;;;22.30;78.70;;;;;;5091296;28;20067;-74
2023/05/04 11:18:11;;;;;;;7.07;5.05;;;22.20;79.40;;;;;;5091419;28;20035;-73
2023/05/04 11:21:26;;;;;;;6.75;4.93;;;22.30;79.40;;;;;;5090938;28;20097;-74
2023/05/04 11:24:43;;;;;;;8.52;5.30;;;22.50;78.30;;;;;;5090100;28;20055;-72
2023/05/04 11:27:48;;;;;;;5.32;4.78;;;22.60;77.80;;;;;;5090931;28;20059;-72
2023/05/04 11:30:52;;;;;;;9.23;5.10;;;22.70;77.80;;;;;;5091028;28;20043;-71
2023/05/04 11:33:57;;;;;;;6.88;4.78;;;22.70;77.70;;;;;;5090943;28;20046;-72
2023/05/04 11:37:04;;;;;;;8.30;5.30;;;22.70;77.70;;;;;;5091181;28;20063;-73
2023/05/04 11:40:18;;;;;;;8.10;4.53;;;22.70;78.50;;;;;;5091245;28;20051;-73
2023/05/04 11:43:23;;;;;;;5.88;4.43;;;22.50;77.40;;;;;;5090860;28;20074;-74
2023/05/04 11:46:27;;;;;;;4.88;4.43;;;22.70;78.40;;;;;;5090840;28;20553;-75
2023/05/04 11:49:32;;;;;;;5.18;4.13;;;22.70;76.90;;;;;;5090738;28;20043;-73
2023/05/04 11:52:39;;;;;;;5.15;4.22;;;22.80;77.10;;;;;;5089576;28;20051;-74
2023/05/04 11:55:43;;;;;;;5.93;4.50;;;23.00;77.00;;;;;;5090922;28;20648;-75
2023/05/04 11:58:47;;;;;;;5.15;4.00;;;23.10;75.10;;;;;;5090622;28;20046;-74
2023/05/04 12:01:51;;;;;;;5.20;4.30;;;23.20;75.80;;;;;;5090745;28;20055;-73
2023/05/04 12:04:55;;;;;;;5.78;4.63;;;23.30;76.10;;;;;;5090638;28;20391;-73
2023/05/04 12:07:58;;;;;;;5.05;4.30;;;23.30;76.10;;;;;;5090731;28;20427;-73
2023/05/04 12:11:24;;;;;;;8.10;4.38;;;23.50;74.80;;;;;;5090693;28;20511;-72
2023/05/04 12:14:28;;;;;;;6.00;3.78;;;23.60;75.70;;;;;;5090778;28;20059;-74
2023/05/04 12:17:42;;;;;;;5.97;3.92;;;23.60;73.80;;;;;;5090072;28;20047;-73
2023/05/04 12:20:47;;;;;;;7.53;4.15;;;23.60;75.50;;;;;;5090014;28;20059;-69
2023/05/04 12:23:50;;;;;;;4.65;3.95;;;23.70;75.80;;;;;;5090630;28;20063;-71
2023/05/04 12:26:54;;;;;;;12.80;3.85;;;23.60;76.20;;;;;;5089413;28;20431;-69
2023/05/04 12:29:58;;;;;;;4.57;3.97;;;23.30;76.60;;;;;;5090220;28;20047;-71
2023/05/04 12:33:04;;;;;;;7.32;4.50;;;23.00;76.90;;;;;;5088566;28;20138;-71
2023/05/04 12:36:09;;;;;;;4.75;3.95;;;22.90;77.10;;;;;;5088630;28;20047;-69
2023/05/04 12:39:13;;;;;;;5.95;4.25;;;22.90;77.50;;;;;;5089795;28;20043;-72
2023/05/04 12:42:17;;;;;;;5.53;4.00;;;23.00;77.00;;;;;;5090091;28;20066;-71
2023/05/04 12:45:21;;;;;;;5.85;3.88;;;22.90;76.50;;;;;;5090132;28;20043;-70
2023/05/04 12:48:27;;;;;;;7.70;4.00;;;23.00;76.20;;;;;;5089194;28;20035;-72
2023/05/04 12:51:32;;;;;;;6.60;4.53;;;23.00;75.80;;;;;;5090435;28;20047;-71
2023/05/04 12:54:36;;;;;;;11.18;3.97;;;23.10;75.40;;;;;;5089943;28;20035;-70
2023/05/04 12:57:43;;;;;;;3.85;3.50;;;23.20;76.00;;;;;;5089469;28;20051;-70
2023/05/04 13:00:48;;;;;;;8.10;4.07;;;23.30;74.80;;;;;;5090163;28;20060;-71
2023/05/04 13:03:52;;;;;;;7.80;3.90;;;23.00;72.10;;;;;;5089861;28;20142;-72
2023/05/04 13:06:56;;;;;;;8.63;3.88;;;22.90;74.50;;;;;;5093948;28;20051;-68
2023/05/04 13:10:00;;;;;;;6.50;3.58;;;22.80;74.10;;;;;;5093678;28;20095;-71
2023/05/04 13:13:05;;;;;;;5.70;3.22;;;22.80;74.20;;;;;;5093280;28;20419;-72
2023/05/04 13:16:09;;;;;;;7.47;3.92;;;22.90;73.10;;;;;;5091914;28;20043;-72
2023/05/04 13:19:12;;;;;;;5.75;3.80;;;22.90;74.40;;;;;;5094079;28;20051;-73
2023/05/04 13:22:16;;;;;;;4.95;3.63;;;23.10;76.10;;;;;;5093865;28;20396;-73
2023/05/04 13:25:21;;;;;;;4.40;3.78;;;23.30;75.60;;;;;;5093337;28;20490;-72
2023/05/04 13:28:25;;;;;;;7.20;3.28;;;23.30;76.90;;;;;;5092380;28;20055;-73
2023/05/04 13:31:28;;;;;;;5.22;3.60;;;23.10;75.00;;;;;;5093159;28;20039;-74
2023/05/04 13:34:33;;;;;;;5.40;3.90;;;23.00;75.80;;;;;;5093038;28;20146;-71
2023/05/04 13:37:37;;;;;;;4.47;3.72;;;22.80;76.40;;;;;;5093295;28;20043;-72
2023/05/04 13:40:42;;;;;;;8.68;4.43;;;22.70;76.00;;;;;;5093170;28;20050;-73
2023/05/04 13:43:47;;;;;;;7.20;3.58;;;22.80;77.10;;;;;;5093183;28;20061;-73
2023/05/04 13:46:52;;;;;;;4.20;3.50;;;22.80;77.30;;;;;;5093335;28;20048;-71
2023/05/04 13:49:55;;;;;;;5.57;3.58;;;22.80;77.30;;;;;;5092783;28;20043;-73
2023/05/04 13:53:01;;;;;;;7.63;3.42;;;22.80;77.30;;;;;;5093138;28;20055;-73
2023/05/04 13:56:05;;;;;;;6.30;3.38;;;22.80;75.50;;;;;;5092858;28;20491;-73
2023/05/04 13:59:09;;;;;;;6.70;3.47;;;22.90;75.50;;;;;;5091897;28;20051;-71
2023/05/04 14:02:13;;;;;;;5.15;3.65;;;22.70;75.00;;;;;;5092346;28;20067;-71
2023/05/04 14:05:17;;;;;;;5.63;3.10;;;22.80;75.50;;;;;;5092582;28;20498;-71
2023/05/04 14:08:21;;;;;;;4.40;3.30;;;22.70;75.40;;;;;;5092640;28;20043;-73
2023/05/04 14:11:25;;;;;;;6.88;3.90;;;22.70;76.00;;;;;;5092695;28;20039;-73
2023/05/04 14:14:29;;;;;;;10.15;4.13;;;22.60;75.90;;;;;;5092502;28;20403;-72
2023/05/04 14:17:33;;;;;;;7.30;4.20;;;22.70;76.50;;;;;;5092839;28;20035;-70
2023/05/04 14:20:37;;;;;;;9.98;4.53;;;22.70;80.00;;;;;;5092409;28;20051;-72
2023/05/04 14:23:41;;;;;;;6.22;4.47;;;22.80;81.10;;;;;;5091359;28;20043;-70
2023/05/04 14:26:45;;;;;;;7.18;4.38;;;23.00;82.20;;;;;;5092044;28;20047;-72
2023/05/04 14:29:51;;;;;;;6.15;4.85;;;23.00;81.80;;;;;;5092238;28;20059;-72
2023/05/04 14:32:57;;;;;;;4.70;3.53;;;23.20;81.10;;;;;;5092398;28;20039;-73
2023/05/04 14:36:02;;;;;;;8.63;4.95;;;23.30;81.50;;;;;;5092518;28;20055;-73
2023/05/04 14:39:07;;;;;;;8.57;4.28;;;23.30;81.90;;;;;;5092263;28;20035;-72
2023/05/04 14:42:10;;;;;;;7.93;3.97;;;23.30;82.80;;;;;;5091922;28;20455;-70
2023/05/04 14:45:16;;;;;;;5.78;3.75;;;23.30;82.90;;;;;;5091694;28;20039;-72
2023/05/04 14:48:22;;;;;;;4.47;3.78;;;23.30;83.00;;;;;;5091838;28;20403;-70
2023/05/04 14:51:26;;;;;;;6.05;4.32;;;23.40;82.80;;;;;;5091758;28;20043;-71
2023/05/04 14:54:30;;;;;;;5.28;3.58;;;23.30;82.10;;;;;;5091662;28;20043;-71
2023/05/04 14:57:34;;;;;;;10.13;4.82;;;23.30;82.30;;;;;;5091491;28;20514;-72
2023/05/04 15:00:39;;;;;;;4.90;3.55;;;23.40;81.50;;;;;;5091563;28;20039;-71
2023/05/04 15:03:42;;;;;;;4.72;3.30;;;23.40;81.30;;;;;;5091207;28;20054;-72
2023/05/04 15:06:48;;;;;;;6.47;4.13;;;23.50;80.80;;;;;;5090886;28;20051;-70
2023/05/04 15:09:52;;;;;;;8.95;4.65;;;23.50;81.00;;;;;;5090547;28;20047;-71
2023/05/04 15:12:58;;;;;;;7.80;4.55;;;23.50;80.20;;;;;;5091555;28;20043;-70
2023/05/04 15:16:03;;;;;;;7.47;4.80;;;23.50;80.60;;;;;;5090896;28;20043;-69
2023/05/04 15:19:07;;;;;;;6.75;4.10;;;23.50;80.50;;;;;;5091615;28;20051;-69
2023/05/04 15:22:11;;;;;;;5.75;4.25;;;23.40;80.70;;;;;;5090913;28;20513;-69
2023/05/04 15:25:15;;;;;;;7.47;4.32;;;23.40;81.10;;;;;;5091375;28;20043;-71
2023/05/04 15:28:21;;;;;;;3.67;3.10;;;23.40;82.10;;;;;;5090063;28;20055;-68
2023/05/04 15:31:26;;;;;;;7.85;3.20;;;23.40;83.30;;;;;;5091166;28;20035;-69
2023/05/04 15:34:29;;;;;;;6.35;3.17;;;23.30;84.30;;;;;;5091132;28;20043;-70
2023/05/04 15:37:33;;;;;;;6.82;3.42;;;23.30;84.30;;;;;;5091026;28;20051;-70
2023/05/04 15:40:37;;;;;;;7.72;3.55;;;23.30;83.80;;;;;;5090710;28;20051;-71
2023/05/04 15:43:41;;;;;;;6.45;3.25;;;23.30;83.80;;;;;;5090675;28;20348;-70
2023/05/04 15:46:46;;;;;;;5.97;3.58;;;23.30;84.00;;;;;;5091190;28;20039;-71
2023/05/04 15:49:51;;;;;;;7.75;3.47;;;23.30;83.80;;;;;;5090680;28;20043;-70
2023/05/04 15:52:55;;;;;;;6.57;3.38;;;23.30;83.90;;;;;;5091281;28;20421;-70
2023/05/04 15:55:59;;;;;;;7.88;3.90;;;23.30;83.60;;;;;;5090778;28;20073;-71
2023/05/04 15:59:04;;;;;;;5.25;3.20;;;23.20;82.80;;;;;;5091362;28;20055;-72
2023/05/04 16:02:08;;;;;;;6.63;3.63;;;23.30;83.50;;;;;;5091172;28;20059;-69